createdAt,value
2018-05-06T00:00:52.959Z,18.62
2018-05-06T00:01:52.988Z,18.56
2018-05-06T00:02:53.083Z,18.5
2018-05-06T00:03:53.115Z,18.5
2018-05-06T00:04:52.949Z,18.5
2018-05-06T00:05:53.408Z,18.5
2018-05-06T00:06:53.026Z,18.56
2018-05-06T00:07:53.080Z,18.56
2018-05-06T00:08:52.959Z,18.56
2018-05-06T00:09:52.983Z,18.56
2018-05-06T00:10:52.994Z,18.56
2018-05-06T00:11:52.946Z,18.5
2018-05-06T00:12:52.950Z,18.44
2018-05-06T00:13:52.943Z,18.5
2018-05-06T00:14:53.022Z,18.44
2018-05-06T00:15:52.980Z,18.44
2018-05-06T00:16:52.962Z,18.44
2018-05-06T00:17:53.012Z,18.37
2018-05-06T00:18:52.960Z,18.44
2018-05-06T00:19:52.967Z,18.37
2018-05-06T00:20:52.929Z,18.44
2018-05-06T00:21:52.936Z,18.37
2018-05-06T00:22:52.904Z,18.31
2018-05-06T00:23:52.944Z,18.37
2018-05-06T00:24:52.950Z,18.44
2018-05-06T00:25:52.983Z,18.31
2018-05-06T00:26:52.954Z,18.37
2018-05-06T00:27:52.946Z,18.37
2018-05-06T00:28:52.965Z,18.37
2018-05-06T00:29:52.935Z,18.37
2018-05-06T00:30:52.931Z,18.31
2018-05-06T00:31:52.941Z,18.31
2018-05-06T00:32:57.864Z,18.25
2018-05-06T00:33:52.936Z,18.25
2018-05-06T00:34:52.962Z,18.25
2018-05-06T00:35:52.929Z,18.19
2018-05-06T00:36:52.962Z,18.25
2018-05-06T00:37:52.942Z,18.25
2018-05-06T00:38:52.963Z,18.25
2018-05-06T00:39:52.965Z,18.25
2018-05-06T00:40:52.982Z,18.19
2018-05-06T00:41:52.924Z,18.19
2018-05-06T00:42:52.940Z,18.19
2018-05-06T00:43:52.913Z,18.12
2018-05-06T00:44:53.031Z,18.12
2018-05-06T00:45:53.022Z,18.12
2018-05-06T00:46:52.949Z,18.12
2018-05-06T00:47:53.072Z,18.12
2018-05-06T00:48:53.655Z,18.06
2018-05-06T00:49:53.822Z,18.06
2018-05-06T00:50:53.697Z,18.06
2018-05-06T00:51:53.676Z,18.06
2018-05-06T00:52:53.694Z,18.12
2018-05-06T00:53:53.756Z,18.12
2018-05-06T00:54:53.812Z,18.06
2018-05-06T00:55:53.692Z,18.12
2018-05-06T00:56:53.604Z,18.06
2018-05-06T00:57:53.466Z,18.12
2018-05-06T00:58:53.648Z,18.06
2018-05-06T00:59:53.638Z,18.06
2018-05-06T01:00:53.639Z,18.12
2018-05-06T01:01:53.708Z,18.06
2018-05-06T01:02:53.661Z,18.06
2018-05-06T01:03:53.728Z,18
2018-05-06T01:04:53.794Z,18.06
2018-05-06T01:05:53.739Z,18
2018-05-06T01:06:53.663Z,18
2018-05-06T01:07:53.754Z,18
2018-05-06T01:08:53.737Z,18
2018-05-06T01:09:53.756Z,17.94
2018-05-06T01:10:53.667Z,17.94
2018-05-06T01:11:53.633Z,17.94
2018-05-06T01:12:53.682Z,17.94
2018-05-06T01:13:53.937Z,17.94
2018-05-06T01:14:53.716Z,17.94
2018-05-06T01:15:53.702Z,18
2018-05-06T01:16:53.717Z,17.94
2018-05-06T01:17:53.719Z,17.87
2018-05-06T01:18:53.844Z,17.87
2018-05-06T01:19:53.675Z,17.87
2018-05-06T01:20:53.960Z,17.81
2018-05-06T01:21:53.640Z,17.81
2018-05-06T01:22:53.630Z,17.81
2018-05-06T01:23:53.691Z,17.81
2018-05-06T01:24:53.755Z,17.81
2018-05-06T01:25:53.640Z,17.69
2018-05-06T01:26:53.678Z,17.62
2018-05-06T01:27:53.695Z,17.56
2018-05-06T01:28:53.620Z,17.62
2018-05-06T01:29:53.694Z,17.62
2018-05-06T01:30:53.686Z,17.62
2018-05-06T01:31:53.682Z,17.62
2018-05-06T01:32:53.490Z,17.62
2018-05-06T01:33:53.726Z,17.62
2018-05-06T01:34:53.729Z,17.5
2018-05-06T01:35:53.635Z,17.5
2018-05-06T01:36:53.649Z,17.44
2018-05-06T01:37:53.713Z,17.5
2018-05-06T01:38:53.627Z,17.5
2018-05-06T01:39:53.662Z,17.5
2018-05-06T01:40:53.703Z,17.5
2018-05-06T01:41:53.636Z,17.5
2018-05-06T01:42:53.657Z,17.5
2018-05-06T01:43:53.622Z,17.5
2018-05-06T01:44:53.696Z,17.5
2018-05-06T01:45:53.609Z,17.5
2018-05-06T01:46:53.603Z,17.5
2018-05-06T01:47:53.619Z,17.5
2018-05-06T01:48:52.955Z,17.5
2018-05-06T01:49:53.630Z,17.5
2018-05-06T01:50:54.534Z,17.5
2018-05-06T01:51:53.718Z,17.5
2018-05-06T01:52:52.939Z,17.5
2018-05-06T01:53:52.915Z,17.5
2018-05-06T01:54:53.658Z,17.5
2018-05-06T01:55:52.947Z,17.44
2018-05-06T01:56:52.927Z,17.5
2018-05-06T01:57:53.661Z,17.5
2018-05-06T01:58:52.906Z,17.44
2018-05-06T01:59:52.893Z,17.5
2018-05-06T02:00:55.219Z,17.5
2018-05-06T02:01:52.981Z,17.5
2018-05-06T02:02:52.940Z,17.56
2018-05-06T02:03:53.639Z,17.44
2018-05-06T02:04:53.707Z,17.5
2018-05-06T02:05:52.935Z,17.5
2018-05-06T02:06:52.902Z,17.5
2018-05-06T02:07:52.929Z,17.44
2018-05-06T02:08:52.950Z,17.44
2018-05-06T02:09:52.933Z,17.44
2018-05-06T02:10:52.948Z,17.44
2018-05-06T02:11:52.943Z,17.44
2018-05-06T02:12:52.964Z,17.37
2018-05-06T02:13:52.939Z,17.37
2018-05-06T02:14:53.675Z,17.31
2018-05-06T02:15:52.977Z,17.37
2018-05-06T02:16:52.918Z,17.37
2018-05-06T02:17:52.916Z,17.37
2018-05-06T02:18:52.937Z,17.37
2018-05-06T02:19:53.712Z,17.37
2018-05-06T02:20:52.958Z,17.31
2018-05-06T02:21:52.964Z,17.31
2018-05-06T02:22:52.944Z,17.31
2018-05-06T02:23:53.680Z,17.31
2018-05-06T02:24:52.936Z,17.31
2018-05-06T02:25:53.730Z,17.31
2018-05-06T02:26:52.940Z,17.31
2018-05-06T02:27:53.769Z,17.31
2018-05-06T02:28:52.944Z,17.31
2018-05-06T02:29:52.925Z,17.31
2018-05-06T02:30:52.985Z,17.31
2018-05-06T02:31:53.723Z,17.31
2018-05-06T02:32:52.936Z,17.31
2018-05-06T02:33:52.953Z,17.31
2018-05-06T02:34:53.732Z,17.31
2018-05-06T02:35:52.936Z,17.31
2018-05-06T02:36:52.929Z,17.31
2018-05-06T02:37:53.012Z,17.25
2018-05-06T02:38:52.921Z,17.31
2018-05-06T02:39:52.959Z,17.31
2018-05-06T02:40:52.937Z,17.31
2018-05-06T02:41:52.948Z,17.31
2018-05-06T02:42:52.924Z,17.25
2018-05-06T02:43:52.959Z,17.25
2018-05-06T02:44:52.955Z,17.25
2018-05-06T02:45:52.933Z,17.25
2018-05-06T02:46:52.978Z,17.31
2018-05-06T02:47:52.978Z,17.19
2018-05-06T02:48:52.963Z,17.25
2018-05-06T02:49:54.038Z,17.25
2018-05-06T02:50:52.933Z,17.19
2018-05-06T02:51:52.936Z,17.25
2018-05-06T02:52:52.927Z,17.25
2018-05-06T02:53:52.935Z,17.25
2018-05-06T02:54:53.035Z,17.19
2018-05-06T02:55:52.930Z,17.19
2018-05-06T02:56:52.964Z,17.19
2018-05-06T02:57:52.954Z,17.19
2018-05-06T02:58:52.968Z,17.12
2018-05-06T02:59:53.051Z,17.19
2018-05-06T03:00:52.949Z,17.12
2018-05-06T03:01:52.984Z,17.12
2018-05-06T03:02:52.959Z,17.12
2018-05-06T03:03:53.055Z,17.12
2018-05-06T03:04:53.134Z,17.12
2018-05-06T03:05:52.980Z,17.12
2018-05-06T03:06:52.989Z,17.12
2018-05-06T03:07:52.967Z,17.12
2018-05-06T03:08:52.967Z,17.12
2018-05-06T03:09:52.965Z,17.12
2018-05-06T03:10:52.981Z,17.12
2018-05-06T03:11:53.064Z,17.06
2018-05-06T03:12:52.991Z,17.12
2018-05-06T03:13:53.074Z,17.06
2018-05-06T03:14:53.044Z,17.12
2018-05-06T03:15:53.058Z,17.06
2018-05-06T03:16:52.981Z,17.06
2018-05-06T03:17:53.031Z,17.06
2018-05-06T03:18:53.071Z,17.06
2018-05-06T03:19:53.014Z,17.06
2018-05-06T03:20:53.013Z,17.06
2018-05-06T03:21:52.983Z,17.06
2018-05-06T03:22:52.952Z,17
2018-05-06T03:23:52.957Z,17
2018-05-06T03:24:53.040Z,17
2018-05-06T03:25:53.054Z,17
2018-05-06T03:26:53.056Z,16.94
2018-05-06T03:27:52.994Z,16.94
2018-05-06T03:28:53.065Z,16.94
2018-05-06T03:29:52.993Z,16.94
2018-05-06T03:30:53.018Z,16.94
2018-05-06T03:31:53.013Z,16.94
2018-05-06T03:32:52.992Z,16.94
2018-05-06T03:33:53.037Z,16.94
2018-05-06T03:34:53.008Z,16.94
2018-05-06T03:35:52.981Z,16.94
2018-05-06T03:36:52.982Z,16.87
2018-05-06T03:37:53.042Z,16.87
2018-05-06T03:38:52.962Z,16.87
2018-05-06T03:39:53.045Z,16.87
2018-05-06T03:40:53.087Z,16.87
2018-05-06T03:41:52.969Z,16.81
2018-05-06T03:42:52.988Z,16.75
2018-05-06T03:43:52.996Z,16.81
2018-05-06T03:44:53.021Z,16.81
2018-05-06T03:45:52.989Z,16.81
2018-05-06T03:46:53.004Z,16.81
2018-05-06T03:47:53.020Z,16.81
2018-05-06T03:48:52.971Z,16.75
2018-05-06T03:49:53.041Z,16.81
2018-05-06T03:50:53.014Z,16.75
2018-05-06T03:51:53.001Z,16.75
2018-05-06T03:52:53.067Z,16.75
2018-05-06T03:53:53.030Z,16.81
2018-05-06T03:54:52.998Z,16.75
2018-05-06T03:55:53.011Z,16.75
2018-05-06T03:56:53.032Z,16.75
2018-05-06T03:57:53.027Z,16.69
2018-05-06T03:58:52.967Z,16.75
2018-05-06T03:59:52.994Z,16.69
2018-05-06T04:00:53.082Z,16.75
2018-05-06T04:01:53.008Z,16.75
2018-05-06T04:02:52.976Z,16.69
2018-05-06T04:03:53.031Z,16.69
2018-05-06T04:04:53.000Z,16.69
2018-05-06T04:05:54.322Z,16.69
2018-05-06T04:06:53.026Z,16.69
2018-05-06T04:07:53.047Z,16.69
2018-05-06T04:08:53.005Z,16.75
2018-05-06T04:09:52.975Z,16.69
2018-05-06T04:10:53.263Z,16.69
2018-05-06T04:11:54.271Z,16.62
2018-05-06T04:12:52.990Z,16.62
2018-05-06T04:13:53.049Z,16.62
2018-05-06T04:14:53.003Z,16.62
2018-05-06T04:15:53.089Z,16.56
2018-05-06T04:16:52.962Z,16.56
2018-05-06T04:17:53.033Z,16.56
2018-05-06T04:18:53.032Z,16.56
2018-05-06T04:19:52.968Z,16.56
2018-05-06T04:20:53.018Z,16.56
2018-05-06T04:21:52.953Z,16.56
2018-05-06T04:22:53.080Z,16.5
2018-05-06T04:23:53.041Z,16.5
2018-05-06T04:24:53.036Z,16.56
2018-05-06T04:25:53.037Z,16.5
2018-05-06T04:26:54.182Z,16.56
2018-05-06T04:27:53.067Z,16.5
2018-05-06T04:28:52.976Z,16.5
2018-05-06T04:29:53.024Z,16.5
2018-05-06T04:30:53.054Z,16.5
2018-05-06T04:31:52.985Z,16.5
2018-05-06T04:32:53.198Z,16.44
2018-05-06T04:33:53.091Z,16.44
2018-05-06T04:34:53.027Z,16.44
2018-05-06T04:35:53.025Z,16.37
2018-05-06T04:36:53.049Z,16.37
2018-05-06T04:37:53.067Z,16.31
2018-05-06T04:38:52.982Z,16.31
2018-05-06T04:39:53.053Z,16.31
2018-05-06T04:40:53.044Z,16.37
2018-05-06T04:41:53.014Z,16.37
2018-05-06T04:42:53.009Z,16.31
2018-05-06T04:43:53.045Z,16.31
2018-05-06T04:44:53.104Z,16.37
2018-05-06T04:45:53.060Z,16.31
2018-05-06T04:46:53.023Z,16.37
2018-05-06T04:47:53.022Z,16.31
2018-05-06T04:48:53.011Z,16.31
2018-05-06T04:49:53.062Z,16.31
2018-05-06T04:50:53.227Z,16.31
2018-05-06T04:51:53.013Z,16.37
2018-05-06T04:52:53.021Z,16.37
2018-05-06T04:53:53.000Z,16.31
2018-05-06T04:54:52.993Z,16.37
2018-05-06T04:55:53.036Z,16.31
2018-05-06T04:56:53.001Z,16.31
2018-05-06T04:57:53.013Z,16.37
2018-05-06T04:58:52.988Z,16.31
2018-05-06T04:59:53.015Z,16.37
2018-05-06T05:00:53.026Z,16.37
2018-05-06T05:01:53.000Z,16.31
2018-05-06T05:02:52.993Z,16.31
2018-05-06T05:03:53.012Z,16.31
2018-05-06T05:04:52.986Z,16.25
2018-05-06T05:05:53.036Z,16.25
2018-05-06T05:06:53.011Z,16.31
2018-05-06T05:07:53.044Z,16.31
2018-05-06T05:08:53.003Z,16.25
2018-05-06T05:09:53.054Z,16.31
2018-05-06T05:10:53.022Z,16.31
2018-05-06T05:11:53.091Z,16.31
2018-05-06T05:12:53.038Z,16.37
2018-05-06T05:13:53.044Z,16.25
2018-05-06T05:14:53.013Z,16.31
2018-05-06T05:15:53.057Z,16.31
2018-05-06T05:16:53.144Z,16.31
2018-05-06T05:17:53.190Z,16.37
2018-05-06T05:18:53.045Z,16.37
2018-05-06T05:19:53.021Z,16.44
2018-05-06T05:20:53.564Z,16.44
2018-05-06T05:21:53.074Z,16.37
2018-05-06T05:22:53.010Z,16.37
2018-05-06T05:23:53.049Z,16.31
2018-05-06T05:24:53.157Z,16.31
2018-05-06T05:25:53.102Z,16.31
2018-05-06T05:26:53.122Z,16.31
2018-05-06T05:27:53.058Z,16.25
2018-05-06T05:28:53.045Z,16.25
2018-05-06T05:29:53.030Z,16.25
2018-05-06T05:30:53.082Z,16.31
2018-05-06T05:31:53.043Z,16.31
2018-05-06T05:32:53.225Z,16.31
2018-05-06T05:33:53.096Z,16.31
2018-05-06T05:34:53.050Z,16.31
2018-05-06T05:35:53.013Z,16.37
2018-05-06T05:36:53.035Z,16.31
2018-05-06T05:37:53.046Z,16.37
2018-05-06T05:38:53.065Z,16.37
2018-05-06T05:39:53.093Z,16.37
2018-05-06T05:40:53.018Z,16.44
2018-05-06T05:41:53.071Z,16.5
2018-05-06T05:42:53.222Z,16.5
2018-05-06T05:43:53.009Z,16.5
2018-05-06T05:44:52.996Z,16.5
2018-05-06T05:45:53.055Z,16.5
2018-05-06T05:46:53.231Z,16.56
2018-05-06T05:47:53.596Z,16.56
2018-05-06T05:48:53.071Z,16.56
2018-05-06T05:49:53.073Z,16.56
2018-05-06T05:50:53.006Z,16.56
2018-05-06T05:51:53.052Z,16.56
2018-05-06T05:52:53.049Z,16.62
2018-05-06T05:53:53.055Z,16.62
2018-05-06T05:54:53.032Z,16.69
2018-05-06T05:55:53.062Z,16.69
2018-05-06T05:56:53.040Z,16.75
2018-05-06T05:57:53.078Z,16.69
2018-05-06T05:58:53.111Z,16.75
2018-05-06T05:59:53.063Z,16.69
2018-05-06T06:00:53.030Z,16.69
2018-05-06T06:01:53.036Z,16.69
2018-05-06T06:02:53.038Z,16.62
2018-05-06T06:03:53.014Z,16.56
2018-05-06T06:04:53.066Z,16.5
2018-05-06T06:05:53.043Z,16.56
2018-05-06T06:06:53.094Z,16.56
2018-05-06T06:07:53.045Z,16.56
2018-05-06T06:08:53.070Z,16.62
2018-05-06T06:09:53.070Z,16.62
2018-05-06T06:10:53.037Z,16.62
2018-05-06T06:11:53.085Z,16.56
2018-05-06T06:12:53.017Z,16.56
2018-05-06T06:13:53.043Z,16.56
2018-05-06T06:14:53.035Z,16.5
2018-05-06T06:15:53.149Z,16.56
2018-05-06T06:16:53.047Z,16.62
2018-05-06T06:17:53.047Z,16.62
2018-05-06T06:18:53.096Z,16.62
2018-05-06T06:19:53.068Z,16.69
2018-05-06T06:20:53.078Z,16.62
2018-05-06T06:21:53.081Z,16.62
2018-05-06T06:22:53.044Z,16.56
2018-05-06T06:23:53.107Z,16.56
2018-05-06T06:24:53.234Z,16.5
2018-05-06T06:25:53.082Z,16.56
2018-05-06T06:26:53.088Z,16.56
2018-05-06T06:27:53.091Z,16.56
2018-05-06T06:28:53.189Z,16.62
2018-05-06T06:29:53.049Z,16.75
2018-05-06T06:30:53.117Z,16.69
2018-05-06T06:31:53.113Z,16.81
2018-05-06T06:32:55.990Z,16.75
2018-05-06T06:33:53.220Z,16.81
2018-05-06T06:34:53.106Z,16.81
2018-05-06T06:35:53.177Z,16.81
2018-05-06T06:36:53.054Z,16.81
2018-05-06T06:37:53.079Z,16.75
2018-05-06T06:38:53.241Z,16.81
2018-05-06T06:39:53.877Z,16.87
2018-05-06T06:40:53.066Z,16.87
2018-05-06T06:41:53.098Z,16.87
2018-05-06T06:42:53.602Z,16.94
2018-05-06T06:43:53.112Z,16.94
2018-05-06T06:44:53.085Z,17
2018-05-06T06:45:53.057Z,17
2018-05-06T06:46:53.052Z,17.06
2018-05-06T06:47:53.188Z,17.06
2018-05-06T06:48:53.546Z,17.12
2018-05-06T06:49:53.059Z,17.19
2018-05-06T06:50:53.072Z,17.19
2018-05-06T06:51:53.142Z,17.25
2018-05-06T06:52:53.079Z,17.25
2018-05-06T06:53:53.036Z,17.25
2018-05-06T06:54:53.106Z,17.31
2018-05-06T06:55:53.112Z,17.31
2018-05-06T06:56:53.080Z,17.25
2018-05-06T06:57:53.056Z,17.31
2018-05-06T06:58:53.122Z,17.31
2018-05-06T06:59:53.055Z,17.31
2018-05-06T07:00:53.072Z,17.37
2018-05-06T07:01:53.108Z,17.31
2018-05-06T07:02:53.079Z,17.37
2018-05-06T07:03:53.157Z,17.37
2018-05-06T07:04:53.099Z,17.44
2018-05-06T07:05:53.493Z,17.37
2018-05-06T07:06:53.084Z,17.44
2018-05-06T07:07:53.098Z,17.44
2018-05-06T07:08:53.089Z,17.5
2018-05-06T07:09:53.209Z,17.5
2018-05-06T07:10:53.057Z,17.5
2018-05-06T07:11:53.117Z,17.56
2018-05-06T07:12:53.082Z,17.62
2018-05-06T07:13:53.210Z,17.62
2018-05-06T07:14:53.219Z,17.69
2018-05-06T07:15:53.087Z,17.69
2018-05-06T07:16:53.095Z,17.69
2018-05-06T07:17:53.092Z,17.62
2018-05-06T07:18:53.066Z,17.69
2018-05-06T07:19:53.108Z,17.62
2018-05-06T07:20:53.110Z,17.69
2018-05-06T07:21:53.103Z,17.69
2018-05-06T07:22:53.267Z,17.75
2018-05-06T07:23:53.077Z,17.75
2018-05-06T07:24:53.110Z,17.81
2018-05-06T07:25:53.181Z,17.87
2018-05-06T07:26:53.191Z,17.87
2018-05-06T07:27:53.065Z,17.94
2018-05-06T07:28:53.099Z,18
2018-05-06T07:29:53.669Z,18.06
2018-05-06T07:30:53.144Z,18.06
2018-05-06T07:31:53.119Z,18.06
2018-05-06T07:32:53.105Z,18.06
2018-05-06T07:33:53.103Z,18.06
2018-05-06T07:34:53.056Z,18.06
2018-05-06T07:35:53.688Z,18.06
2018-05-06T07:36:53.110Z,18.12
2018-05-06T07:37:53.051Z,18.12
2018-05-06T07:38:53.077Z,18.19
2018-05-06T07:39:53.144Z,18.19
2018-05-06T07:40:53.160Z,18.19
2018-05-06T07:41:53.086Z,18.25
2018-05-06T07:42:53.127Z,18.25
2018-05-06T07:43:53.171Z,18.25
2018-05-06T07:44:53.139Z,18.31
2018-05-06T07:45:53.097Z,18.25
2018-05-06T07:46:53.093Z,18.25
2018-05-06T07:47:53.096Z,18.25
2018-05-06T07:48:53.116Z,18.31
2018-05-06T07:49:53.193Z,18.37
2018-05-06T07:50:53.138Z,18.37
2018-05-06T07:51:53.211Z,18.31
2018-05-06T07:52:53.081Z,18.44
2018-05-06T07:53:53.097Z,18.5
2018-05-06T07:54:53.066Z,18.56
2018-05-06T07:55:53.069Z,18.56
2018-05-06T07:56:53.097Z,18.62
2018-05-06T07:57:53.121Z,18.62
2018-05-06T07:58:53.638Z,18.69
2018-05-06T07:59:53.110Z,18.75
2018-05-06T08:00:53.119Z,18.75
2018-05-06T08:01:53.086Z,18.69
2018-05-06T08:02:53.068Z,18.69
2018-05-06T08:03:53.112Z,18.56
2018-05-06T08:04:53.427Z,18.56
2018-05-06T08:05:53.124Z,18.56
2018-05-06T08:06:53.110Z,18.56
2018-05-06T08:07:53.067Z,18.62
2018-05-06T08:08:53.077Z,18.62
2018-05-06T08:09:53.108Z,18.62
2018-05-06T08:10:54.060Z,18.69
2018-05-06T08:11:53.094Z,18.75
2018-05-06T08:12:53.076Z,18.81
2018-05-06T08:13:53.125Z,18.87
2018-05-06T08:14:53.109Z,18.87
2018-05-06T08:15:53.087Z,18.75
2018-05-06T08:16:53.088Z,18.75
2018-05-06T08:17:53.112Z,18.69
2018-05-06T08:18:53.128Z,18.69
2018-05-06T08:19:53.094Z,18.69
2018-05-06T08:20:53.168Z,18.69
2018-05-06T08:21:53.644Z,18.75
2018-05-06T08:22:53.142Z,18.81
2018-05-06T08:23:53.083Z,18.94
2018-05-06T08:24:53.112Z,19
2018-05-06T08:25:53.217Z,19
2018-05-06T08:26:53.084Z,19
2018-05-06T08:27:53.142Z,19.12
2018-05-06T08:28:53.187Z,19.12
2018-05-06T08:29:53.220Z,19.19
2018-05-06T08:30:53.107Z,19.19
2018-05-06T08:31:53.096Z,19.25
2018-05-06T08:32:53.123Z,19.31
2018-05-06T08:33:53.135Z,19.31
2018-05-06T08:34:53.112Z,19.37
2018-05-06T08:35:53.108Z,19.37
2018-05-06T08:36:53.146Z,19.5
2018-05-06T08:37:53.113Z,19.5
2018-05-06T08:38:53.108Z,19.56
2018-05-06T08:39:53.144Z,19.56
2018-05-06T08:40:53.135Z,19.56
2018-05-06T08:41:55.493Z,19.62
2018-05-06T08:42:53.117Z,19.69
2018-05-06T08:43:53.205Z,19.69
2018-05-06T08:44:55.053Z,19.75
2018-05-06T08:45:53.680Z,19.81
2018-05-06T08:46:53.114Z,19.81
2018-05-06T08:47:54.707Z,19.87
2018-05-06T08:48:55.429Z,19.87
2018-05-06T08:49:53.125Z,19.87
2018-05-06T08:50:53.305Z,19.94
2018-05-06T08:51:53.147Z,19.87
2018-05-06T08:52:54.677Z,19.94
2018-05-06T08:53:53.196Z,19.94
2018-05-06T08:54:57.906Z,19.87
2018-05-06T08:55:53.132Z,19.87
2018-05-06T08:56:53.216Z,19.87
2018-05-06T08:57:53.178Z,19.94
2018-05-06T08:58:53.127Z,19.94
2018-05-06T08:59:53.341Z,20
2018-05-06T09:00:53.250Z,20.06
2018-05-06T09:01:53.263Z,20.19
2018-05-06T09:02:53.142Z,20.19
2018-05-06T09:03:53.217Z,20.31
2018-05-06T09:04:54.023Z,20.25
2018-05-06T09:05:53.161Z,20.25
2018-05-06T09:06:54.773Z,20.37
2018-05-06T09:07:53.677Z,20.37
2018-05-06T09:08:53.185Z,20.44
2018-05-06T09:09:53.151Z,20.5
2018-05-06T09:10:53.132Z,20.5
2018-05-06T09:11:53.108Z,20.5
2018-05-06T09:12:53.125Z,20.5
2018-05-06T09:13:53.142Z,20.56
2018-05-06T09:14:53.176Z,20.62
2018-05-06T09:15:53.139Z,20.56
2018-05-06T09:16:53.819Z,20.62
2018-05-06T09:17:53.467Z,20.62
2018-05-06T09:18:53.319Z,20.62
2018-05-06T09:19:53.556Z,20.69
2018-05-06T09:20:53.213Z,20.69
2018-05-06T09:21:53.173Z,20.75
2018-05-06T09:22:53.157Z,20.81
2018-05-06T09:23:53.238Z,20.88
2018-05-06T09:24:53.165Z,20.88
2018-05-06T09:25:53.161Z,20.94
2018-05-06T09:26:54.599Z,21
2018-05-06T09:27:57.071Z,21
2018-05-06T09:28:53.116Z,21
2018-05-06T09:29:53.184Z,20.94
2018-05-06T09:30:53.175Z,20.94
2018-05-06T09:31:54.202Z,20.94
2018-05-06T09:32:53.147Z,20.94
2018-05-06T09:33:53.234Z,21
2018-05-06T09:34:53.229Z,21
2018-05-06T09:35:53.172Z,21
2018-05-06T09:36:53.145Z,21
2018-05-06T09:37:53.153Z,20.94
2018-05-06T09:38:53.153Z,20.88
2018-05-06T09:39:53.153Z,20.88
2018-05-06T09:40:53.174Z,20.88
2018-05-06T09:41:53.183Z,20.94
2018-05-06T09:42:53.156Z,20.94
2018-05-06T09:43:53.150Z,21
2018-05-06T09:44:53.162Z,21.06
2018-05-06T09:45:53.147Z,21.12
2018-05-06T09:46:53.256Z,21.25
2018-05-06T09:47:53.662Z,21.31
2018-05-06T09:48:53.155Z,21.25
2018-05-06T09:49:53.936Z,21.37
2018-05-06T09:50:53.138Z,21.37
2018-05-06T09:51:53.180Z,21.37
2018-05-06T09:52:53.159Z,21.37
2018-05-06T09:53:53.715Z,21.44
2018-05-06T09:54:53.350Z,21.44
2018-05-06T09:55:53.204Z,21.5
2018-05-06T09:56:53.135Z,21.56
2018-05-06T09:57:53.249Z,21.62
2018-05-06T09:58:53.202Z,21.75
2018-05-06T09:59:53.293Z,21.75
2018-05-06T10:00:53.137Z,21.81
2018-05-06T10:01:53.241Z,21.81
2018-05-06T10:02:53.164Z,21.94
2018-05-06T10:03:53.128Z,21.94
2018-05-06T10:04:53.197Z,22
2018-05-06T10:06:53.443Z,22.13
2018-05-06T10:07:53.269Z,22.13
2018-05-06T10:08:53.183Z,22.13
2018-05-06T10:09:53.205Z,22.13
2018-05-06T10:10:53.301Z,22.06
2018-05-06T10:11:53.285Z,22
2018-05-06T10:12:53.270Z,22.06
2018-05-06T10:13:53.179Z,22.06
2018-05-06T10:14:53.326Z,22.06
2018-05-06T10:15:53.868Z,22.06
2018-05-06T10:16:53.370Z,22.13
2018-05-06T10:17:53.248Z,22.19
2018-05-06T10:18:53.245Z,22.19
2018-05-06T10:19:53.324Z,22.25
2018-05-06T10:20:53.194Z,22.31
2018-05-06T10:21:53.341Z,22.44
2018-05-06T10:22:53.194Z,22.56
2018-05-06T10:23:53.236Z,22.56
2018-05-06T10:24:53.418Z,22.56
2018-05-06T10:25:53.171Z,22.62
2018-05-06T10:26:53.188Z,22.69
2018-05-06T10:27:53.325Z,22.69
2018-05-06T10:28:53.335Z,22.75
2018-05-06T10:29:56.201Z,22.81
2018-05-06T10:30:53.223Z,22.87
2018-05-06T10:31:53.366Z,22.87
2018-05-06T10:32:53.455Z,22.87
2018-05-06T10:33:53.187Z,22.81
2018-05-06T10:34:53.395Z,22.87
2018-05-06T10:35:53.244Z,22.87
2018-05-06T10:36:53.358Z,22.94
2018-05-06T10:37:53.182Z,23
2018-05-06T10:38:53.384Z,23
2018-05-06T10:39:53.423Z,23.06
2018-05-06T10:40:53.209Z,23.19
2018-05-06T10:41:53.438Z,23.12
2018-05-06T10:42:53.207Z,23.19
2018-05-06T10:43:53.529Z,23.25
2018-05-06T10:44:53.571Z,23.31
2018-05-06T10:45:53.554Z,23.38
2018-05-06T10:46:53.561Z,23.38
2018-05-06T10:47:53.360Z,23.38
2018-05-06T10:48:53.555Z,23.44
2018-05-06T10:49:53.518Z,23.38
2018-05-06T10:50:54.283Z,23.5
2018-05-06T10:51:53.283Z,23.44
2018-05-06T10:52:53.203Z,23.5
2018-05-06T10:53:53.200Z,23.5
2018-05-06T10:54:53.717Z,23.56
2018-05-06T10:55:53.416Z,23.56
2018-05-06T10:56:53.432Z,23.56
2018-05-06T10:57:53.952Z,23.56
2018-05-06T10:58:53.212Z,23.5
2018-05-06T10:59:53.194Z,23.5
2018-05-06T11:00:53.679Z,23.5
2018-05-06T11:01:53.242Z,23.5
2018-05-06T11:02:53.175Z,23.56
2018-05-06T11:03:53.451Z,23.62
2018-05-06T11:04:53.230Z,23.62
2018-05-06T11:05:53.199Z,23.62
2018-05-06T11:06:53.184Z,23.69
2018-05-06T11:07:53.200Z,23.75
2018-05-06T11:08:53.229Z,23.81
2018-05-06T11:09:53.205Z,23.81
2018-05-06T11:10:53.222Z,23.87
2018-05-06T11:11:53.228Z,23.94
2018-05-06T11:12:53.358Z,23.94
2018-05-06T11:13:53.233Z,24
2018-05-06T11:14:53.345Z,24
2018-05-06T11:15:53.227Z,24
2018-05-06T11:16:53.206Z,24.12
2018-05-06T11:17:54.331Z,24.12
2018-05-06T11:18:53.548Z,24.25
2018-05-06T11:19:53.322Z,24.25
2018-05-06T11:20:53.373Z,24.25
2018-05-06T11:21:53.221Z,24.31
2018-05-06T11:22:53.457Z,24.37
2018-05-06T11:23:53.435Z,24.31
2018-05-06T11:24:53.240Z,24.37
2018-05-06T11:25:53.265Z,24.37
2018-05-06T11:26:53.233Z,24.31
2018-05-06T11:27:53.214Z,24.37
2018-05-06T11:28:53.254Z,24.31
2018-05-06T11:29:53.197Z,24.31
2018-05-06T11:30:53.223Z,24.37
2018-05-06T11:31:53.338Z,24.37
2018-05-06T11:32:53.267Z,24.37
2018-05-06T11:33:53.199Z,24.37
2018-05-06T11:34:53.348Z,24.44
2018-05-06T11:35:53.216Z,24.37
2018-05-06T11:36:53.228Z,24.44
2018-05-06T11:37:53.218Z,24.44
2018-05-06T11:38:53.215Z,24.44
2018-05-06T11:39:53.248Z,24.5
2018-05-06T11:40:53.576Z,24.5
2018-05-06T11:41:53.266Z,24.5
2018-05-06T11:42:53.265Z,24.5
2018-05-06T11:43:53.234Z,24.56
2018-05-06T11:44:53.250Z,24.56
2018-05-06T11:45:53.258Z,24.63
2018-05-06T11:46:53.289Z,24.63
2018-05-06T11:47:53.235Z,24.63
2018-05-06T11:48:53.227Z,24.69
2018-05-06T11:49:53.238Z,24.75
2018-05-06T11:50:53.251Z,24.75
2018-05-06T11:51:53.280Z,24.69
2018-05-06T11:52:53.286Z,24.69
2018-05-06T11:53:53.298Z,24.81
2018-05-06T11:54:53.360Z,24.75
2018-05-06T11:55:53.527Z,24.81
2018-05-06T11:56:53.247Z,24.87
2018-05-06T11:57:53.248Z,24.87
2018-05-06T11:58:53.219Z,24.81
2018-05-06T11:59:53.274Z,24.81
2018-05-06T12:00:53.246Z,24.81
2018-05-06T12:01:53.254Z,24.87
2018-05-06T12:02:53.280Z,24.94
2018-05-06T12:03:53.262Z,24.87
2018-05-06T12:04:53.265Z,24.87
2018-05-06T12:05:53.361Z,24.94
2018-05-06T12:06:53.248Z,24.87
2018-05-06T12:07:53.263Z,24.94
2018-05-06T12:08:53.268Z,24.94
2018-05-06T12:09:53.575Z,24.94
2018-05-06T12:10:53.282Z,25
2018-05-06T12:11:53.302Z,24.94
2018-05-06T12:12:53.248Z,24.94
2018-05-06T12:13:53.418Z,25
2018-05-06T12:14:53.322Z,25
2018-05-06T12:15:53.876Z,24.94
2018-05-06T12:16:53.248Z,25.06
2018-05-06T12:17:53.285Z,25.06
2018-05-06T12:18:53.267Z,25.06
2018-05-06T12:19:53.269Z,25.12
2018-05-06T12:20:53.286Z,25.12
2018-05-06T12:21:53.744Z,25.12
2018-05-06T12:22:53.405Z,25.19
2018-05-06T12:23:53.728Z,25.19
2018-05-06T12:24:53.272Z,25.25
2018-05-06T12:25:53.238Z,25.31
2018-05-06T12:26:53.270Z,25.25
2018-05-06T12:27:53.303Z,25.31
2018-05-06T12:28:53.278Z,25.31
2018-05-06T12:29:53.252Z,25.31
2018-05-06T12:30:53.284Z,25.37
2018-05-06T12:31:53.351Z,25.37
2018-05-06T12:32:53.259Z,25.44
2018-05-06T12:33:53.259Z,25.44
2018-05-06T12:34:53.289Z,25.5
2018-05-06T12:35:53.253Z,25.44
2018-05-06T12:36:53.289Z,25.5
2018-05-06T12:37:53.264Z,25.5
2018-05-06T12:38:53.286Z,25.5
2018-05-06T12:39:53.260Z,25.62
2018-05-06T12:40:53.235Z,25.62
2018-05-06T12:41:53.281Z,25.56
2018-05-06T12:42:53.258Z,25.62
2018-05-06T12:43:53.255Z,25.62
2018-05-06T12:44:53.346Z,25.69
2018-05-06T12:45:53.282Z,25.75
2018-05-06T12:46:53.474Z,25.62
2018-05-06T12:47:53.469Z,25.62
2018-05-06T12:48:53.288Z,25.62
2018-05-06T12:49:53.287Z,25.62
2018-05-06T12:50:53.486Z,25.69
2018-05-06T12:51:53.492Z,25.69
2018-05-06T12:52:53.473Z,25.75
2018-05-06T12:53:53.560Z,25.75
2018-05-06T12:54:53.712Z,25.81
2018-05-06T12:55:53.342Z,25.88
2018-05-06T12:56:53.459Z,25.81
2018-05-06T12:57:53.553Z,25.75
2018-05-06T12:58:54.368Z,25.81
2018-05-06T12:59:53.353Z,25.88